Time;durP1;ratioP1;P1;durP2;ratioP2;P2;SDS_P1;SDS_P2;PMS_P1;PMS_P2;Temp;Humidity;BMP_temperature;BMP_pressure;BME280_temperature;BME280_humidity;BME280_pressure;Samples;Min_cycle;Max_cycle;Signal;HPM_P1;HPM_P2
2022/12/31 00:00:13;;;;;;;0.43;0.43;;;14.80;99.90;;;;;;4893521;29;20052;-82
2022/12/31 00:02:40;;;;;;;0.30;0.30;;;14.80;99.90;;;;;;4887548;29;20136;-82
2022/12/31 00:05:07;;;;;;;2.88;0.30;;;14.80;99.90;;;;;;4901552;29;20053;-83
2022/12/31 00:07:35;;;;;;;0.38;0.38;;;14.80;99.90;;;;;;4901658;29;20140;-82
2022/12/31 00:10:01;;;;;;;0.30;0.30;;;14.80;99.90;;;;;;4887853;29;20051;-83
2022/12/31 00:12:28;;;;;;;1.17;0.40;;;14.80;99.90;;;;;;4902142;29;20084;-83
2022/12/31 00:14:54;;;;;;;0.88;0.45;;;14.80;99.90;;;;;;4891180;29;20057;-82
2022/12/31 00:17:21;;;;;;;0.57;0.40;;;14.80;99.90;;;;;;4889342;29;20053;-81
2022/12/31 00:19:48;;;;;;;1.10;0.40;;;14.90;99.90;;;;;;4887759;29;20060;-82
2022/12/31 00:22:14;;;;;;;0.75;0.50;;;14.90;99.90;;;;;;4888177;29;20053;-82
2022/12/31 00:24:41;;;;;;;1.38;0.45;;;15.40;99.90;;;;;;4893451;29;20079;-81
2022/12/31 00:27:08;;;;;;;0.35;0.35;;;14.90;99.90;;;;;;4891906;29;20411;-83
2022/12/31 00:29:34;;;;;;;0.40;0.40;;;15.00;99.90;;;;;;4887617;29;20061;-82
2022/12/31 00:32:01;;;;;;;1.95;0.30;;;15.00;99.90;;;;;;4901029;29;20057;-82
2022/12/31 00:34:28;;;;;;;0.40;0.40;;;15.00;99.90;;;;;;4887060;29;20144;-82
2022/12/31 00:36:54;;;;;;;0.70;0.30;;;14.90;99.90;;;;;;4887605;29;20506;-83
2022/12/31 00:39:21;;;;;;;1.50;0.38;;;14.90;99.90;;;;;;4886635;29;20060;-82
2022/12/31 00:41:47;;;;;;;1.33;0.50;;;15.00;99.90;;;;;;4886420;29;20068;-82
2022/12/31 00:44:14;;;;;;;2.28;0.40;;;14.90;99.90;;;;;;4886411;29;20056;-82
2022/12/31 00:46:41;;;;;;;0.32;0.30;;;15.00;99.90;;;;;;4901291;29;20053;-82
2022/12/31 00:49:08;;;;;;;1.15;0.40;;;15.00;99.90;;;;;;4887189;29;20524;-83
2022/12/31 00:51:35;;;;;;;0.40;0.30;;;15.00;99.90;;;;;;4886317;29;20057;-82
2022/12/31 00:54:02;;;;;;;1.10;0.40;;;15.00;99.90;;;;;;4886126;29;20053;-82
2022/12/31 00:56:30;;;;;;;0.30;0.30;;;15.00;99.90;;;;;;4887264;29;20091;-82
2022/12/31 00:58:58;;;;;;;0.95;0.40;;;15.00;99.90;;;;;;4899430;29;20057;-81
2022/12/31 01:01:31;;;;;;;2.05;0.40;;;15.00;99.90;;;;;;4883405;29;20053;-83
2022/12/31 01:04:01;;;;;;;2.17;0.30;;;15.00;99.90;;;;;;4881724;29;20478;-81
2022/12/31 01:06:28;;;;;;;0.32;0.30;;;15.00;99.90;;;;;;4883942;29;20080;-82
2022/12/31 01:08:55;;;;;;;0.52;0.30;;;15.00;99.90;;;;;;4881269;29;20063;-82
2022/12/31 01:11:23;;;;;;;0.20;0.20;;;15.10;99.90;;;;;;4883727;29;20056;-82
2022/12/31 01:14:00;;;;;;;0.30;0.30;;;15.10;99.90;;;;;;4883226;29;20052;-82
2022/12/31 01:16:33;;;;;;;1.77;0.30;;;15.10;99.90;;;;;;4884067;29;20115;-81
2022/12/31 01:19:03;;;;;;;0.98;0.40;;;15.20;99.90;;;;;;4883812;29;20052;-81
2022/12/31 01:21:31;;;;;;;0.35;0.35;;;15.20;99.90;;;;;;4883758;29;20056;-81
2022/12/31 01:23:58;;;;;;;0.32;0.30;;;15.20;99.90;;;;;;4883710;29;20056;-82
2022/12/31 01:26:25;;;;;;;0.82;0.32;;;15.20;99.90;;;;;;4883823;29;20071;-81
2022/12/31 01:28:52;;;;;;;0.82;0.30;;;15.20;99.90;;;;;;4883566;29;20179;-83
2022/12/31 01:31:21;;;;;;;0.40;0.40;;;15.30;99.90;;;;;;4882253;29;20063;-82
2022/12/31 01:33:49;;;;;;;0.30;0.30;;;15.20;99.90;;;;;;4881317;29;20109;-82
2022/12/31 01:36:22;;;;;;;0.95;0.32;;;15.20;99.90;;;;;;4895872;29;20140;-81
2022/12/31 01:38:53;;;;;;;0.52;0.40;;;15.20;99.90;;;;;;4880537;29;20192;-82
2022/12/31 01:41:25;;;;;;;0.55;0.38;;;15.20;99.90;;;;;;4881288;29;20088;-81
2022/12/31 01:43:56;;;;;;;1.20;0.30;;;15.20;99.90;;;;;;4880519;29;20045;-82
2022/12/31 01:46:25;;;;;;;0.45;0.30;;;15.20;99.90;;;;;;4878037;29;20052;-82
2022/12/31 01:49:00;;;;;;;0.30;0.30;;;15.10;99.90;;;;;;4881015;29;20148;-81
2022/12/31 01:51:29;;;;;;;1.23;0.30;;;15.00;99.90;;;;;;4880680;29;20507;-82
2022/12/31 01:53:58;;;;;;;2.70;0.30;;;15.00;99.90;;;;;;4880418;29;20049;-82
2022/12/31 01:56:25;;;;;;;1.95;0.30;;;15.00;99.90;;;;;;4880927;29;20527;-81
2022/12/31 01:58:55;;;;;;;0.63;0.38;;;15.00;99.90;;;;;;4880430;29;20045;-81
2022/12/31 02:01:29;;;;;;;0.30;0.30;;;15.00;99.90;;;;;;4879458;29;20053;-82
2022/12/31 02:03:56;;;;;;;1.15;0.50;;;14.90;99.90;;;;;;4878452;29;20049;-81
2022/12/31 02:06:46;;;;;;;3.22;0.30;;;14.90;99.90;;;;;;4880161;29;20498;-82
2022/12/31 02:09:13;;;;;;;4.15;0.65;;;14.90;99.90;;;;;;4879298;29;20061;-82
2022/12/31 02:11:40;;;;;;;0.45;0.28;;;14.80;99.90;;;;;;4879651;29;20053;-82
2022/12/31 02:14:11;;;;;;;0.38;0.30;;;14.80;99.90;;;;;;4879272;29;20132;-81
2022/12/31 02:17:00;;;;;;;0.28;0.20;;;14.80;99.90;;;;;;4878720;29;20060;-81
2022/12/31 02:19:51;;;;;;;0.65;0.20;;;14.80;99.90;;;;;;4878295;29;20052;-81
2022/12/31 02:22:57;;;;;;;0.70;0.30;;;14.70;99.90;;;;;;4880473;29;20433;-82
2022/12/31 02:25:26;;;;;;;0.93;0.38;;;14.80;99.90;;;;;;4882827;29;20144;-81
2022/12/31 02:28:08;;;;;;;1.07;0.30;;;14.70;99.90;;;;;;4899360;29;20048;-84
2022/12/31 02:30:36;;;;;;;1.38;0.30;;;14.70;99.90;;;;;;4903143;29;20076;-84
2022/12/31 02:33:23;;;;;;;3.30;0.25;;;14.70;99.90;;;;;;4898129;29;20038;-81
2022/12/31 02:36:00;;;;;;;0.95;0.40;;;14.60;99.90;;;;;;4898255;29;20064;-84
2022/12/31 02:38:31;;;;;;;0.45;0.32;;;14.60;99.90;;;;;;4895707;29;20038;-83
2022/12/31 02:40:59;;;;;;;2.42;0.40;;;14.50;99.90;;;;;;4889930;29;20714;-82
2022/12/31 02:43:26;;;;;;;0.52;0.43;;;14.50;99.90;;;;;;4897870;29;20053;-82
2022/12/31 02:46:14;;;;;;;1.38;0.32;;;14.40;99.90;;;;;;4881913;29;20064;-82
2022/12/31 02:48:53;;;;;;;0.90;0.32;;;14.40;99.90;;;;;;4879090;29;20049;-83
2022/12/31 02:51:29;;;;;;;1.40;0.40;;;14.40;99.90;;;;;;4880646;29;20075;-82
2022/12/31 02:54:49;;;;;;;1.83;0.40;;;14.30;99.90;;;;;;4881434;29;20069;-82
2022/12/31 02:57:33;;;;;;;2.72;0.95;;;14.30;99.90;;;;;;4880220;29;20056;-83
2022/12/31 03:02:51;;;;;;;0.38;0.30;;;14.20;99.90;;;;;;4881618;29;20045;-82
2022/12/31 03:05:23;;;;;;;0.95;0.30;;;14.20;99.90;;;;;;4882161;29;20067;-83
2022/12/31 03:07:50;;;;;;;0.93;0.38;;;14.30;99.90;;;;;;4882122;29;20053;-83
2022/12/31 03:10:16;;;;;;;0.95;0.40;;;14.30;99.90;;;;;;4882137;29;20052;-82
2022/12/31 03:12:46;;;;;;;0.35;0.30;;;14.40;99.90;;;;;;4882145;29;20056;-83
2022/12/31 03:15:33;;;;;;;0.30;0.30;;;14.30;99.90;;;;;;4880319;29;20088;-82
2022/12/31 03:22:26;;;;;;;0.55;0.30;;;14.40;99.90;;;;;;4883345;29;20053;-81
2022/12/31 03:26:44;;;;;;;0.20;0.20;;;14.60;99.90;;;;;;4881169;29;20515;-82
2022/12/31 03:29:10;;;;;;;0.30;0.30;;;14.60;99.90;;;;;;4881135;29;20423;-82
2022/12/31 03:31:37;;;;;;;0.25;0.20;;;14.60;99.90;;;;;;4881613;29;20053;-82
2022/12/31 03:34:04;;;;;;;0.20;0.20;;;14.60;99.90;;;;;;4895606;29;20053;-82
2022/12/31 03:36:30;;;;;;;0.43;0.20;;;14.70;99.90;;;;;;4881582;29;20049;-82
2022/12/31 03:38:57;;;;;;;0.20;0.20;;;14.70;99.90;;;;;;4881812;29;20075;-82
2022/12/31 03:41:23;;;;;;;0.35;0.22;;;14.70;99.90;;;;;;4881038;29;20155;-81
2022/12/31 03:43:50;;;;;;;0.75;0.10;;;14.70;99.90;;;;;;4881407;29;20411;-82
2022/12/31 03:46:17;;;;;;;0.50;0.38;;;14.70;99.90;;;;;;4881679;29;20076;-81
2022/12/31 03:48:44;;;;;;;0.13;0.13;;;14.80;99.90;;;;;;4880742;29;20429;-82
2022/12/31 03:51:10;;;;;;;0.25;0.20;;;14.70;99.90;;;;;;4880688;29;20045;-82
2022/12/31 03:53:37;;;;;;;1.95;0.40;;;14.70;99.90;;;;;;4880925;29;20057;-82
2022/12/31 03:56:04;;;;;;;0.30;0.30;;;14.80;99.90;;;;;;4896056;29;20084;-82
2022/12/31 03:58:30;;;;;;;0.47;0.30;;;14.80;99.90;;;;;;4881533;29;20435;-82
2022/12/31 04:00:57;;;;;;;0.22;0.22;;;14.80;99.90;;;;;;4879515;29;20144;-81
2022/12/31 04:03:24;;;;;;;0.43;0.30;;;14.80;99.90;;;;;;4881370;29;20139;-81
2022/12/31 04:05:53;;;;;;;0.93;0.30;;;14.80;99.90;;;;;;4881529;29;20049;-82
2022/12/31 04:08:19;;;;;;;0.38;0.32;;;14.90;99.90;;;;;;4881038;29;20425;-82
2022/12/31 04:10:46;;;;;;;2.45;0.30;;;14.90;99.90;;;;;;4886576;29;20056;-82
2022/12/31 04:13:13;;;;;;;0.30;0.30;;;15.00;99.90;;;;;;4884869;29;20076;-81
2022/12/31 04:15:40;;;;;;;0.40;0.30;;;15.00;99.90;;;;;;4882033;29;20069;-82
2022/12/31 04:18:06;;;;;;;1.48;0.30;;;15.00;99.90;;;;;;4878778;29;20093;-82
2022/12/31 04:20:33;;;;;;;0.98;0.40;;;15.00;99.90;;;;;;4880758;29;20061;-81
2022/12/31 04:23:00;;;;;;;0.38;0.30;;;15.00;99.90;;;;;;4880747;29;20049;-83
2022/12/31 04:25:26;;;;;;;0.75;0.30;;;15.00;99.90;;;;;;4880505;29;20112;-82
2022/12/31 04:27:53;;;;;;;1.48;0.28;;;15.00;99.90;;;;;;4879674;29;20068;-81
2022/12/31 04:30:20;;;;;;;0.60;0.43;;;15.00;99.90;;;;;;4879899;29;20052;-81
2022/12/31 04:32:46;;;;;;;0.68;0.20;;;15.00;99.90;;;;;;4881128;29;20145;-82
2022/12/31 04:35:13;;;;;;;0.57;0.28;;;14.90;99.90;;;;;;4881346;29;20057;-82
2022/12/31 04:37:40;;;;;;;0.30;0.30;;;14.90;99.90;;;;;;4884740;29;20053;-82
2022/12/31 04:40:07;;;;;;;0.25;0.20;;;14.90;99.90;;;;;;4883980;29;20068;-82
2022/12/31 04:42:34;;;;;;;0.30;0.30;;;14.90;99.90;;;;;;4884660;29;20495;-82
2022/12/31 04:45:01;;;;;;;0.35;0.30;;;14.90;99.90;;;;;;4884378;29;20053;-81
2022/12/31 04:47:28;;;;;;;0.20;0.20;;;14.90;99.90;;;;;;4884587;29;20100;-81
2022/12/31 04:49:55;;;;;;;0.47;0.30;;;14.80;99.90;;;;;;4897459;29;20136;-81
2022/12/31 04:52:22;;;;;;;0.10;0.10;;;14.80;99.90;;;;;;4884247;29;20049;-81
2022/12/31 04:54:49;;;;;;;0.38;0.35;;;14.70;99.90;;;;;;4897697;29;20456;-82
2022/12/31 04:57:16;;;;;;;0.32;0.30;;;14.70;99.90;;;;;;4884263;29;20053;-82
2022/12/31 04:59:42;;;;;;;1.02;0.20;;;14.70;99.90;;;;;;4895098;29;20514;-82
2022/12/31 05:02:09;;;;;;;0.20;0.20;;;14.60;99.90;;;;;;4898989;29;20415;-82
2022/12/31 05:04:36;;;;;;;0.88;0.30;;;14.60;99.90;;;;;;4884769;29;20049;-83
2022/12/31 05:07:03;;;;;;;0.30;0.30;;;14.60;99.90;;;;;;4902832;29;20072;-81
2022/12/31 05:09:30;;;;;;;2.97;0.40;;;14.60;99.90;;;;;;4883514;29;20136;-82
2022/12/31 05:11:57;;;;;;;0.65;0.20;;;14.60;99.90;;;;;;4897794;29;20049;-83
2022/12/31 05:14:23;;;;;;;0.77;0.40;;;14.50;99.90;;;;;;4879757;29;20093;-82
2022/12/31 05:16:51;;;;;;;2.08;0.35;;;14.50;99.90;;;;;;4883778;29;20146;-82
2022/12/31 05:19:17;;;;;;;0.45;0.32;;;14.50;99.90;;;;;;4883144;29;20057;-82
2022/12/31 05:22:27;;;;;;;0.68;0.30;;;14.60;99.90;;;;;;4881425;29;20135;-82
2022/12/31 05:24:31;;;;;;;0.73;0.28;;;14.60;99.90;;;;;;4882687;29;20127;-81
2022/12/31 05:26:57;;;;;;;0.43;0.20;;;14.60;99.90;;;;;;4881823;29;20051;-81
2022/12/31 05:29:24;;;;;;;0.45;0.30;;;14.60;99.90;;;;;;4882523;29;20455;-82
2022/12/31 05:31:51;;;;;;;0.30;0.30;;;14.60;99.90;;;;;;4880731;29;20057;-81
2022/12/31 05:34:18;;;;;;;0.30;0.25;;;14.70;99.90;;;;;;4878638;29;20056;-82
2022/12/31 05:36:44;;;;;;;0.55;0.30;;;14.70;99.90;;;;;;4882997;29;20049;-82
2022/12/31 05:39:11;;;;;;;1.02;0.50;;;14.70;99.90;;;;;;4882788;29;20049;-81
2022/12/31 05:41:38;;;;;;;0.20;0.20;;;14.70;99.90;;;;;;4882503;29;20061;-82
2022/12/31 05:44:04;;;;;;;0.30;0.25;;;14.80;99.90;;;;;;4880125;29;20056;-82
2022/12/31 05:46:31;;;;;;;0.20;0.20;;;14.80;99.90;;;;;;4882471;29;20140;-82
2022/12/31 05:48:58;;;;;;;0.40;0.30;;;14.80;99.90;;;;;;4883775;29;20049;-82
2022/12/31 05:51:24;;;;;;;0.20;0.20;;;14.80;99.90;;;;;;4883543;29;20060;-81
2022/12/31 05:53:51;;;;;;;1.63;0.35;;;14.70;99.90;;;;;;4896416;29;20049;-81
2022/12/31 05:56:19;;;;;;;0.22;0.22;;;15.40;99.90;;;;;;4883205;29;20061;-82
2022/12/31 05:58:46;;;;;;;3.45;0.20;;;14.70;99.90;;;;;;4879743;29;20064;-82
2022/12/31 06:01:12;;;;;;;0.38;0.30;;;14.70;99.90;;;;;;4889177;29;20063;-82
2022/12/31 06:03:40;;;;;;;0.65;0.30;;;14.70;99.90;;;;;;4881579;29;20530;-82
2022/12/31 06:06:07;;;;;;;0.52;0.20;;;14.70;99.90;;;;;;4882409;29;20053;-82
2022/12/31 06:08:34;;;;;;;0.25;0.22;;;14.70;99.90;;;;;;4896244;29;20061;-82
2022/12/31 06:11:00;;;;;;;0.25;0.20;;;14.80;99.90;;;;;;4897034;29;20059;-81
2022/12/31 06:13:27;;;;;;;0.50;0.30;;;15.50;99.90;;;;;;4882559;29;20061;-82
2022/12/31 06:15:54;;;;;;;0.47;0.30;;;15.30;99.90;;;;;;4881825;29;20567;-82
2022/12/31 06:18:21;;;;;;;0.73;0.30;;;15.70;99.90;;;;;;4893028;29;20060;-82
2022/12/31 06:20:48;;;;;;;0.20;0.20;;;14.90;99.90;;;;;;4880142;29;20053;-81
2022/12/31 06:23:15;;;;;;;0.20;0.20;;;15.70;99.90;;;;;;4880220;29;20052;-79
2022/12/31 06:25:42;;;;;;;0.25;0.25;;;15.00;99.90;;;;;;4880427;29;20053;-81
2022/12/31 06:28:09;;;;;;;0.28;0.28;;;14.90;99.90;;;;;;4880085;29;20045;-81
2022/12/31 06:30:45;;;;;;;1.35;0.47;;;15.20;99.90;;;;;;4879215;29;20434;-81
2022/12/31 06:33:12;;;;;;;1.23;0.20;;;15.10;99.90;;;;;;4894720;29;20404;-82
2022/12/31 06:35:38;;;;;;;0.30;0.30;;;15.00;99.90;;;;;;4879945;29;20063;-81
2022/12/31 06:38:05;;;;;;;1.35;0.30;;;15.00;99.90;;;;;;4894189;29;20066;-80
2022/12/31 06:40:32;;;;;;;0.40;0.20;;;15.00;99.90;;;;;;4879646;29;20060;-81
2022/12/31 06:42:58;;;;;;;0.45;0.20;;;15.00;99.90;;;;;;4879842;29;20057;-81
2022/12/31 06:45:26;;;;;;;0.20;0.20;;;15.00;99.90;;;;;;4880640;29;20045;-82
2022/12/31 06:47:53;;;;;;;0.75;0.20;;;15.60;99.90;;;;;;4896643;29;20091;-81
2022/12/31 06:50:20;;;;;;;0.73;0.45;;;15.00;99.90;;;;;;4879740;29;20059;-82
2022/12/31 06:52:46;;;;;;;0.35;0.35;;;14.90;99.90;;;;;;4897067;29;20053;-82
2022/12/31 06:55:14;;;;;;;0.57;0.50;;;14.90;99.90;;;;;;4901786;29;20084;-81
2022/12/31 06:57:41;;;;;;;0.38;0.35;;;14.90;99.90;;;;;;4879027;29;20061;-82
2022/12/31 07:00:09;;;;;;;0.70;0.40;;;14.90;99.90;;;;;;4877790;29;20530;-81
2022/12/31 07:03:00;;;;;;;0.45;0.28;;;14.90;99.90;;;;;;4879314;29;20055;-82
2022/12/31 07:05:29;;;;;;;;;;;14.90;99.90;;;;;;4879399;29;20097;-81
2022/12/31 07:08:15;;;;;;;0.40;0.40;;;14.90;99.90;;;;;;4893454;29;19923;-79
2022/12/31 07:10:54;;;;;;;0.28;0.20;;;14.90;99.90;;;;;;4877502;29;20297;-81
2022/12/31 07:13:55;;;;;;;0.30;0.30;;;14.90;99.90;;;;;;4877056;29;20136;-82
2022/12/31 07:16:46;;;;;;;1.33;0.30;;;14.90;99.90;;;;;;4883470;29;20049;-81
2022/12/31 07:19:41;;;;;;;0.25;0.20;;;15.00;99.90;;;;;;4877966;29;20091;-82
2022/12/31 07:22:14;;;;;;;3.10;0.30;;;15.00;99.90;;;;;;4877032;29;20088;-80
2022/12/31 07:24:42;;;;;;;0.10;0.10;;;15.00;99.90;;;;;;4877710;29;20060;-82
2022/12/31 07:27:18;;;;;;;1.25;0.30;;;15.00;99.90;;;;;;4877959;29;20499;-82
2022/12/31 07:29:44;;;;;;;0.43;0.30;;;15.00;99.90;;;;;;4875288;29;20084;-81
2022/12/31 07:32:26;;;;;;;0.20;0.20;;;15.10;99.90;;;;;;4881135;29;20059;-81
2022/12/31 07:34:58;;;;;;;0.30;0.30;;;15.10;99.90;;;;;;4880492;29;20059;-82
2022/12/31 07:37:56;;;;;;;0.20;0.20;;;15.20;99.90;;;;;;4881233;29;20110;-82
2022/12/31 07:40:44;;;;;;;0.40;0.30;;;15.20;99.90;;;;;;4880022;29;20451;-82
2022/12/31 07:43:42;;;;;;;0.20;0.20;;;15.30;99.90;;;;;;4878896;29;20136;-82
2022/12/31 07:46:30;;;;;;;0.38;0.30;;;15.40;99.90;;;;;;4857302;29;20053;-81
2022/12/31 07:48:57;;;;;;;0.20;0.20;;;15.40;99.90;;;;;;4902112;29;20079;-81
2022/12/31 07:51:24;;;;;;;0.25;0.25;;;15.40;99.90;;;;;;4881701;29;20060;-82
2022/12/31 07:53:51;;;;;;;3.03;0.40;;;15.50;99.90;;;;;;4894893;29;20053;-82
2022/12/31 07:56:18;;;;;;;1.25;0.20;;;15.50;99.90;;;;;;4881576;29;20053;-83
2022/12/31 07:59:19;;;;;;;0.35;0.30;;;15.60;99.90;;;;;;4881330;29;20059;-83
2022/12/31 08:02:03;;;;;;;3.90;0.40;;;15.60;99.90;;;;;;4880981;29;20078;-83
2022/12/31 08:04:59;;;;;;;0.20;0.20;;;15.70;99.90;;;;;;4878863;29;20076;-83
2022/12/31 08:07:46;;;;;;;0.22;0.22;;;15.80;99.90;;;;;;4895220;29;20057;-83
2022/12/31 08:10:44;;;;;;;1.63;0.28;;;15.90;99.90;;;;;;4884763;29;20068;-82
2022/12/31 08:13:12;;;;;;;0.55;0.35;;;15.90;99.90;;;;;;4899226;29;20092;-83
2022/12/31 08:15:39;;;;;;;0.63;0.40;;;16.00;99.90;;;;;;4885111;29;20495;-82
2022/12/31 08:18:07;;;;;;;0.40;0.40;;;16.00;99.90;;;;;;4901636;29;20145;-81
2022/12/31 08:20:47;;;;;;;1.35;0.40;;;16.00;99.90;;;;;;4885593;29;20515;-83
2022/12/31 08:23:17;;;;;;;1.02;0.43;;;16.10;99.90;;;;;;4895974;29;20084;-83
2022/12/31 08:25:58;;;;;;;0.70;0.40;;;16.20;99.90;;;;;;4884016;29;20049;-83
2022/12/31 08:28:54;;;;;;;1.38;0.60;;;16.30;99.90;;;;;;4884152;29;20522;-83
2022/12/31 08:31:46;;;;;;;2.83;0.30;;;16.30;99.90;;;;;;4882614;29;20053;-83
2022/12/31 08:34:52;;;;;;;1.15;0.38;;;16.30;99.90;;;;;;4882502;29;20108;-83
2022/12/31 08:37:42;;;;;;;0.45;0.20;;;16.30;99.90;;;;;;4880555;29;20120;-81
2022/12/31 08:40:25;;;;;;;1.03;0.53;;;16.30;99.90;;;;;;4884815;29;20059;-83
2022/12/31 08:43:24;;;;;;;0.68;0.20;;;16.40;99.90;;;;;;4889891;29;20049;-83
2022/12/31 08:45:52;;;;;;;0.20;0.20;;;16.40;99.90;;;;;;4896635;29;20053;-83
2022/12/31 08:48:29;;;;;;;0.47;0.25;;;16.40;99.90;;;;;;4884016;29;20084;-81
2022/12/31 08:50:56;;;;;;;1.33;0.20;;;16.50;99.90;;;;;;4882173;29;20056;-83
2022/12/31 08:53:23;;;;;;;2.03;0.50;;;16.50;99.90;;;;;;4881015;29;20537;-82
2022/12/31 08:56:03;;;;;;;1.60;0.90;;;16.50;99.90;;;;;;4884167;29;20107;-83
2022/12/31 08:59:09;;;;;;;1.45;0.30;;;16.50;99.90;;;;;;4897914;29;20140;-82
2022/12/31 09:02:14;;;;;;;0.30;0.30;;;16.40;99.90;;;;;;4882270;29;20053;-81
2022/12/31 09:05:07;;;;;;;0.20;0.20;;;16.40;99.90;;;;;;4877637;29;20144;-82
2022/12/31 09:07:38;;;;;;;2.05;0.30;;;16.50;99.90;;;;;;4882002;29;20116;-82
2022/12/31 09:10:08;;;;;;;2.30;0.40;;;16.40;99.90;;;;;;4881332;29;20101;-81
2022/12/31 09:12:42;;;;;;;0.60;0.40;;;16.50;99.90;;;;;;4882988;29;20059;-81
2022/12/31 09:15:25;;;;;;;1.50;0.40;;;16.50;99.90;;;;;;4883469;29;20053;-83
2022/12/31 09:17:52;;;;;;;0.32;0.20;;;16.60;99.90;;;;;;4881524;29;20053;-80
2022/12/31 09:20:28;;;;;;;0.25;0.20;;;16.60;99.90;;;;;;4883102;29;20538;-83
2022/12/31 09:23:09;;;;;;;2.15;0.22;;;16.60;99.90;;;;;;4884745;29;20053;-82
2022/12/31 09:25:58;;;;;;;0.30;0.20;;;16.60;99.90;;;;;;4884554;29;20049;-82
2022/12/31 09:28:48;;;;;;;2.45;0.73;;;16.60;99.90;;;;;;4884476;29;20495;-83
2022/12/31 09:31:30;;;;;;;0.20;0.20;;;16.60;99.90;;;;;;4897532;29;20611;-82
2022/12/31 09:34:36;;;;;;;0.25;0.20;;;16.70;99.90;;;;;;4881651;29;20049;-83
2022/12/31 09:37:10;;;;;;;1.65;0.20;;;16.70;99.90;;;;;;4887765;29;20064;-83
2022/12/31 09:39:42;;;;;;;0.30;0.30;;;16.60;99.90;;;;;;4883567;29;20049;-81
2022/12/31 09:42:09;;;;;;;0.40;0.25;;;16.70;99.90;;;;;;4883942;29;20049;-81
2022/12/31 09:44:53;;;;;;;1.10;0.30;;;16.70;99.90;;;;;;4883091;29;20060;-83
2022/12/31 09:47:42;;;;;;;0.25;0.25;;;16.70;99.90;;;;;;4898248;29;20140;-81
2022/12/31 09:50:41;;;;;;;0.45;0.30;;;16.70;99.90;;;;;;4883628;29;20049;-81
2022/12/31 09:53:34;;;;;;;1.92;0.40;;;16.70;99.90;;;;;;4877271;29;20172;-81
2022/12/31 09:56:10;;;;;;;0.10;0.10;;;16.70;99.90;;;;;;4883680;29;20147;-83
2022/12/31 09:59:00;;;;;;;0.30;0.15;;;16.80;99.90;;;;;;4881111;29;20623;-83
2022/12/31 10:01:53;;;;;;;0.30;0.28;;;16.80;99.90;;;;;;4880420;29;20135;-82
2022/12/31 10:04:38;;;;;;;0.70;0.40;;;16.80;99.90;;;;;;4882703;29;20072;-83
2022/12/31 10:07:17;;;;;;;0.20;0.20;;;16.70;99.90;;;;;;4882793;29;20430;-82
2022/12/31 10:09:50;;;;;;;0.10;0.10;;;16.80;99.90;;;;;;4883133;29;20280;-83
2022/12/31 10:12:34;;;;;;;1.45;0.20;;;16.80;99.90;;;;;;4876380;29;20139;-82
2022/12/31 10:15:01;;;;;;;0.50;0.40;;;16.90;99.90;;;;;;4894250;29;20055;-83
2022/12/31 10:17:38;;;;;;;0.77;0.68;;;16.90;99.90;;;;;;4880020;29;20057;-82
2022/12/31 10:20:05;;;;;;;1.17;0.20;;;17.00;99.90;;;;;;4871549;29;20068;-82
2022/12/31 10:23:13;;;;;;;0.30;0.15;;;17.10;99.90;;;;;;4881808;29;20048;-81
2022/12/31 10:26:09;;;;;;;0.30;0.20;;;17.10;99.90;;;;;;4888298;29;20426;-81
2022/12/31 10:28:48;;;;;;;0.65;0.45;;;17.10;99.90;;;;;;4881340;29;20052;-81
2022/12/31 10:31:36;;;;;;;0.30;0.30;;;17.10;99.90;;;;;;4887708;29;20052;-83
2022/12/31 10:34:15;;;;;;;0.20;0.20;;;17.10;99.90;;;;;;4881522;29;20057;-82
2022/12/31 10:37:07;;;;;;;0.20;0.20;;;17.20;99.90;;;;;;4879499;29;20057;-81
2022/12/31 10:39:57;;;;;;;0.15;0.15;;;17.10;99.90;;;;;;4878390;29;20550;-82
2022/12/31 10:42:45;;;;;;;0.90;0.20;;;17.10;99.90;;;;;;4880605;29;20049;-80
2022/12/31 10:45:21;;;;;;;0.47;0.13;;;17.20;99.90;;;;;;4876079;29;20057;-82
2022/12/31 10:47:47;;;;;;;0.10;0.10;;;17.20;99.90;;;;;;4881626;29;20407;-82
2022/12/31 10:50:29;;;;;;;2.97;0.43;;;17.30;99.90;;;;;;4878951;29;20071;-81
2022/12/31 10:52:56;;;;;;;0.50;0.15;;;17.20;99.90;;;;;;4895047;29;20098;-83
2022/12/31 10:55:34;;;;;;;0.10;0.10;;;17.30;99.90;;;;;;4878546;29;20121;-82
2022/12/31 10:58:08;;;;;;;0.20;0.20;;;17.30;99.90;;;;;;4881505;29;20049;-81
2022/12/31 11:00:53;;;;;;;0.20;0.20;;;17.20;99.90;;;;;;4887523;29;20125;-81
2022/12/31 11:03:31;;;;;;;0.52;0.40;;;17.20;99.90;;;;;;4887963;29;20568;-83
2022/12/31 11:06:37;;;;;;;1.27;0.50;;;17.30;99.90;;;;;;4882519;29;20049;-82
2022/12/31 11:09:22;;;;;;;0.20;0.20;;;17.30;99.90;;;;;;4877067;29;20136;-80
2022/12/31 11:12:12;;;;;;;0.17;0.10;;;17.30;99.90;;;;;;4881835;29;20053;-82
2022/12/31 11:15:00;;;;;;;1.40;0.95;;;17.30;99.90;;;;;;4873622;29;20140;-82
2022/12/31 11:18:01;;;;;;;1.50;0.63;;;17.30;99.90;;;;;;4871986;29;20180;-81
2022/12/31 11:20:54;;;;;;;0.80;0.30;;;17.40;99.90;;;;;;4881097;29;20053;-80
2022/12/31 11:23:30;;;;;;;4.32;0.38;;;17.40;99.90;;;;;;4880359;29;20135;-80
2022/12/31 11:26:23;;;;;;;0.25;0.25;;;17.40;99.90;;;;;;4882665;29;20063;-80
2022/12/31 11:29:04;;;;;;;0.50;0.25;;;17.40;99.90;;;;;;4881968;29;20140;-80
2022/12/31 11:32:06;;;;;;;0.93;0.40;;;17.40;99.90;;;;;;4879391;29;20532;-81
2022/12/31 11:34:56;;;;;;;1.50;0.17;;;17.40;99.90;;;;;;4859975;29;20512;-81
2022/12/31 11:37:51;;;;;;;0.10;0.10;;;17.50;99.90;;;;;;4879394;29;20476;-81
2022/12/31 11:40:37;;;;;;;0.52;0.35;;;17.50;99.90;;;;;;4880285;29;20499;-80
2022/12/31 11:43:21;;;;;;;0.40;0.40;;;17.40;99.90;;;;;;4880763;29;20416;-80
2022/12/31 11:46:07;;;;;;;3.53;0.60;;;17.50;99.90;;;;;;4877282;29;20125;-81
2022/12/31 11:49:07;;;;;;;6.43;0.75;;;17.40;99.90;;;;;;4895148;29;20057;-81
2022/12/31 11:52:15;;;;;;;0.93;0.22;;;17.50;99.90;;;;;;4882399;29;20143;-81
2022/12/31 11:55:32;;;;;;;1.85;0.30;;;17.50;99.90;;;;;;4871862;29;20057;-79
2022/12/31 11:58:10;;;;;;;10.15;0.52;;;17.50;99.90;;;;;;4869934;29;20057;-83
2022/12/31 12:00:37;;;;;;;0.30;0.20;;;17.50;99.90;;;;;;4879597;29;20040;-81
2022/12/31 12:03:06;;;;;;;0.20;0.20;;;17.60;99.90;;;;;;4880770;29;20046;-80
2022/12/31 12:05:34;;;;;;;0.28;0.20;;;17.60;99.90;;;;;;4881888;29;20056;-80
2022/12/31 12:08:01;;;;;;;0.45;0.30;;;17.60;99.90;;;;;;4867040;29;20427;-80
2022/12/31 12:10:31;;;;;;;1.27;0.35;;;17.60;99.90;;;;;;4876582;29;20109;-81
2022/12/31 12:13:18;;;;;;;0.55;0.20;;;17.70;99.90;;;;;;4876663;29;20057;-79
2022/12/31 12:15:52;;;;;;;0.20;0.20;;;17.60;99.90;;;;;;4876067;29;20071;-81
2022/12/31 12:18:41;;;;;;;0.38;0.30;;;17.70;99.90;;;;;;4877699;29;20124;-81
2022/12/31 12:21:15;;;;;;;1.67;0.32;;;17.70;99.90;;;;;;4880364;29;20491;-80
2022/12/31 12:23:53;;;;;;;1.98;0.65;;;17.70;99.90;;;;;;4879186;29;20069;-80
2022/12/31 12:26:34;;;;;;;0.93;0.35;;;17.70;99.90;;;;;;4878260;29;20049;-80
2022/12/31 12:29:16;;;;;;;0.50;0.30;;;17.70;99.90;;;;;;4876014;29;20052;-80
2022/12/31 12:31:55;;;;;;;0.73;0.57;;;17.70;99.90;;;;;;4875080;29;20049;-81
2022/12/31 12:34:28;;;;;;;5.57;1.20;;;17.80;99.90;;;;;;4875378;29;20063;-81
2022/12/31 12:36:55;;;;;;;1.33;0.50;;;17.80;99.90;;;;;;4878394;29;20068;-81
2022/12/31 12:39:25;;;;;;;3.60;0.75;;;17.70;99.90;;;;;;4874612;29;20091;-79
2022/12/31 12:42:04;;;;;;;3.05;0.90;;;17.70;99.90;;;;;;4880025;29;20060;-81
2022/12/31 12:44:31;;;;;;;1.75;0.80;;;17.80;99.90;;;;;;4877852;29;20525;-79
2022/12/31 12:47:00;;;;;;;3.10;1.20;;;17.80;99.90;;;;;;4877206;29;20072;-80
2022/12/31 12:49:45;;;;;;;4.50;2.47;;;17.70;99.90;;;;;;4872606;29;20112;-81
2022/12/31 12:52:35;;;;;;;2.25;1.35;;;17.70;99.90;;;;;;4877134;29;20056;-80
2022/12/31 12:55:20;;;;;;;1.08;0.90;;;17.70;99.90;;;;;;4876561;29;20064;-80
2022/12/31 12:58:09;;;;;;;3.88;0.85;;;17.70;99.90;;;;;;4877751;29;20057;-81
2022/12/31 13:00:54;;;;;;;1.15;0.70;;;17.70;99.90;;;;;;4877559;29;20063;-81
2022/12/31 13:03:39;;;;;;;3.20;1.00;;;17.70;99.90;;;;;;4878968;29;20097;-80
2022/12/31 13:06:50;;;;;;;2.33;1.10;;;17.70;99.90;;;;;;4880726;29;20056;-81
2022/12/31 13:10:01;;;;;;;3.33;0.90;;;17.60;99.90;;;;;;4880603;29;20049;-80
2022/12/31 13:12:31;;;;;;;2.85;1.60;;;17.70;99.90;;;;;;4858148;29;20045;-81
2022/12/31 13:15:30;;;;;;;;;;;17.60;99.90;;;;;;4887739;29;20045;-80
2022/12/31 13:18:23;;;;;;;7.18;1.90;;;17.60;99.90;;;;;;4881130;29;19923;-81
2022/12/31 13:21:02;;;;;;;4.40;1.73;;;17.60;99.90;;;;;;4871054;29;20136;-81
2022/12/31 13:23:46;;;;;;;3.00;1.40;;;17.60;99.90;;;;;;4880325;29;20065;-81
2022/12/31 13:26:17;;;;;;;5.68;1.50;;;17.60;99.90;;;;;;4881257;29;20056;-79
2022/12/31 13:28:46;;;;;;;7.00;2.97;;;17.50;99.90;;;;;;4881169;29;20435;-81
2022/12/31 13:31:19;;;;;;;13.68;6.20;;;17.50;99.90;;;;;;4879023;29;20055;-80
2022/12/31 13:33:52;;;;;;;5.85;1.80;;;17.40;99.90;;;;;;4881878;29;20057;-81
2022/12/31 13:36:22;;;;;;;2.00;1.60;;;17.50;99.90;;;;;;4880175;29;20491;-81
2022/12/31 13:38:56;;;;;;;2.75;1.20;;;17.50;99.90;;;;;;4882506;29;20055;-81